Terminal Aerodrome Forecast
Issued by NWS

Home | Current Version | Previous Version | Text Only | Print | Product List | Glossary On
Versions: 1 2 3 4 5 6 7 8 9 10 11 12 13 14 15 16 17 18 19 20 21 22 23 24 25 26 27 28 29 30 31 32 33 34
000
FTUS41 KBOX 291728
TAFACK
TAF
KACK 291728Z 2918/3018 33008KT P6SM FEW250
     FM300200 16006KT P6SM SCT150
     FM300500 16009KT P6SM BKN100
     FM300800 16010G17KT P6SM OVC025
     FM301000 16010G18KT P6SM -RA OVC015
     FM301500 17011KT 2SM -RA OVC008
     FM301700 21008KT 2SM -RA OVC008=

USA.gov is the U.S. government's official web portal to all federal, state and local government web resources and services.